createdAt,value
2023-01-08T00:00:08.236Z,-5.43
2023-01-08T00:01:13.550Z,-5.41
2023-01-08T00:02:15.896Z,-5.34
2023-01-08T00:03:18.425Z,-5.32
2023-01-08T00:04:21.157Z,-5.32
2023-01-08T00:05:23.643Z,-5.26
2023-01-08T00:06:26.122Z,-5.22
2023-01-08T00:07:28.208Z,-5.21
2023-01-08T00:08:31.613Z,-5.11
2023-01-08T00:09:38.844Z,-5.23
2023-01-08T00:10:41.410Z,-5.27
2023-01-08T00:11:44.342Z,-5.35
2023-01-08T00:12:46.687Z,-5.34
2023-01-08T00:13:49.721Z,-5.60
2023-01-08T00:14:55.009Z,-5.60
2023-01-08T00:15:57.203Z,-5.71
2023-01-08T00:17:02.363Z,-5.62
2023-01-08T00:18:07.055Z,-5.58
2023-01-08T00:20:38.229Z,-5.42
2023-01-08T00:21:40.166Z,-5.63
2023-01-08T00:22:42.401Z,-5.56
2023-01-08T00:23:44.599Z,-5.52
2023-01-08T00:24:47.215Z,-5.54
2023-01-08T00:25:49.768Z,-5.54
2023-01-08T00:26:52.515Z,-5.58
2023-01-08T00:27:54.496Z,-5.64
2023-01-08T00:28:56.612Z,-5.57
2023-01-08T00:30:00.232Z,-5.56
2023-01-08T00:31:07.378Z,-5.82
2023-01-08T00:32:10.180Z,-5.80
2023-01-08T00:33:12.367Z,-5.92
2023-01-08T00:34:15.542Z,-5.95
2023-01-08T00:35:17.559Z,-5.97
2023-01-08T00:36:20.069Z,-6.03
2023-01-08T00:37:22.248Z,-6.03
2023-01-08T00:38:28.875Z,-6.18
2023-01-08T00:39:32.166Z,-6.20
2023-01-08T00:40:35.883Z,-6.19
2023-01-08T00:41:41.708Z,-6.06
2023-01-08T00:42:43.844Z,-6.03
2023-01-08T00:43:45.949Z,-5.91
2023-01-08T00:44:48.042Z,-6.04
2023-01-08T00:45:52.005Z,-6.03
2023-01-08T00:46:54.388Z,-5.92
2023-01-08T00:47:56.412Z,-5.98
2023-01-08T00:49:00.644Z,-5.96
2023-01-08T00:50:03.793Z,-5.90
2023-01-08T00:51:09.000Z,-5.94
2023-01-08T00:52:12.001Z,-5.93
2023-01-08T00:53:14.235Z,-5.94
2023-01-08T00:54:16.344Z,-5.92
2023-01-08T00:55:19.556Z,-6.05
2023-01-08T00:56:21.784Z,-6.16
2023-01-08T00:57:25.996Z,-6.18
2023-01-08T00:58:30.302Z,-6.29
2023-01-08T00:59:32.430Z,-6.37
2023-01-08T01:00:34.541Z,-6.35
2023-01-08T01:01:37.209Z,-6.33
2023-01-08T01:02:40.605Z,-6.32
2023-01-08T01:03:42.950Z,-6.28
2023-01-08T01:04:44.957Z,-6.21
2023-01-08T01:05:49.095Z,-6.14
2023-01-08T01:08:15.176Z,-6.26
2023-01-08T01:09:17.233Z,-6.31
2023-01-08T01:10:21.422Z,-6.26
2023-01-08T01:11:26.710Z,-6.20
2023-01-08T01:12:30.358Z,-6.10
2023-01-08T01:13:32.469Z,-6.08
2023-01-08T01:14:39.749Z,-6.11
2023-01-08T01:15:45.593Z,-6.18
2023-01-08T01:16:51.068Z,-6.23
2023-01-08T01:17:53.169Z,-6.14
2023-01-08T01:18:57.121Z,-6.13
2023-01-08T01:20:00.771Z,-6.21
2023-01-08T01:22:31.360Z,-6.08
2023-01-08T01:23:33.793Z,-6.15
2023-01-08T01:24:38.039Z,-6.12
2023-01-08T01:25:40.125Z,-6.12
2023-01-08T01:26:42.516Z,-6.16
2023-01-08T01:27:44.505Z,-6.15
2023-01-08T01:28:49.189Z,-6.11
2023-01-08T01:29:51.899Z,-6.19
2023-01-08T01:30:57.722Z,-6.18
2023-01-08T01:32:09.098Z,-6.42
2023-01-08T01:33:12.491Z,-6.35
2023-01-08T01:34:14.525Z,-6.20
2023-01-08T01:35:16.516Z,-6.04
2023-01-08T01:36:23.057Z,-6.08
2023-01-08T01:37:27.088Z,-6.14
2023-01-08T01:38:31.465Z,-6.11
2023-01-08T01:40:00.025Z,-6.03
2023-01-08T01:41:04.825Z,-5.97
2023-01-08T01:42:08.917Z,-6.03
2023-01-08T01:43:14.287Z,-6.15
2023-01-08T01:44:40.206Z,-6.23
2023-01-08T01:45:42.575Z,-6.14
2023-01-08T01:46:45.190Z,-6.02
2023-01-08T01:47:54.357Z,-5.99
2023-01-08T01:49:01.765Z,-5.96
2023-01-08T01:51:27.621Z,-5.80
2023-01-08T01:52:34.712Z,-6.05
2023-01-08T01:53:38.459Z,-6.01
2023-01-08T01:54:40.773Z,-5.96
2023-01-08T01:55:45.238Z,-6.08
2023-01-08T01:56:49.332Z,-6.13
2023-01-08T01:58:11.971Z,-6.21
2023-01-08T01:59:15.567Z,-6.31
2023-01-08T02:00:19.711Z,-6.44
2023-01-08T02:01:23.544Z,-6.50
2023-01-08T02:02:26.161Z,-6.44
2023-01-08T02:03:34.625Z,-6.48
2023-01-08T02:04:36.970Z,-6.39
2023-01-08T02:06:07.401Z,-6.31
2023-01-08T02:07:35.263Z,-6.24
2023-01-08T02:08:46.304Z,-6.13
2023-01-08T02:09:52.019Z,-6.02
2023-01-08T02:11:14.991Z,-5.97
2023-01-08T02:12:20.717Z,-6.09
2023-01-08T02:13:29.250Z,-6.10
2023-01-08T02:16:17.794Z,-6.30
2023-01-08T02:17:36.116Z,-6.32
2023-01-08T02:18:50.576Z,-6.23
2023-01-08T02:20:07.505Z,-6.11
2023-01-08T02:21:13.327Z,-6.00
2023-01-08T02:22:39.067Z,-5.88
2023-01-08T02:23:59.143Z,-5.89
2023-01-08T02:25:21.759Z,-5.86
2023-01-08T02:26:32.843Z,-5.87
2023-01-08T02:27:37.497Z,-5.92
2023-01-08T02:28:49.172Z,-5.95
2023-01-08T02:29:53.680Z,-5.92
2023-01-08T02:30:57.465Z,-5.90
2023-01-08T02:31:59.981Z,-5.86
2023-01-08T02:33:02.609Z,-5.91
2023-01-08T02:34:05.652Z,-5.95
2023-01-08T02:35:10.012Z,-5.92
2023-01-08T02:36:32.501Z,-5.92
2023-01-08T02:37:36.841Z,-6.04
2023-01-08T02:38:45.131Z,-6.11
2023-01-08T02:39:53.687Z,-6.06
2023-01-08T02:40:59.598Z,-5.93
2023-01-08T02:42:11.394Z,-5.91
2023-01-08T02:43:20.367Z,-5.97
2023-01-08T02:44:26.186Z,-5.96
2023-01-08T02:45:44.373Z,-6.02
2023-01-08T02:46:50.436Z,-6.06
2023-01-08T02:48:03.185Z,-6.01
2023-01-08T02:49:09.750Z,-6.00
2023-01-08T02:50:30.267Z,-6.00
2023-01-08T02:51:36.325Z,-6.01
2023-01-08T02:52:42.438Z,-5.99
2023-01-08T02:53:48.175Z,-5.91
2023-01-08T02:54:51.334Z,-5.89
2023-01-08T02:55:57.632Z,-5.82
2023-01-08T02:57:03.529Z,-5.83
2023-01-08T02:58:08.266Z,-5.91
2023-01-08T02:59:14.481Z,-5.90
2023-01-08T03:00:19.513Z,-5.96
2023-01-08T03:01:25.532Z,-6.06
2023-01-08T03:02:31.467Z,-6.00
2023-01-08T03:03:34.616Z,-5.97
2023-01-08T03:04:43.225Z,-6.01
2023-01-08T03:05:49.651Z,-5.98
2023-01-08T03:06:52.318Z,-6.00
2023-01-08T03:07:55.422Z,-6.13
2023-01-08T03:09:00.388Z,-6.08
2023-01-08T03:10:04.847Z,-6.08
2023-01-08T03:11:10.378Z,-6.06
2023-01-08T03:12:21.983Z,-6.06
2023-01-08T03:13:36.455Z,-6.13
2023-01-08T03:14:48.173Z,-6.11
2023-01-08T03:15:54.633Z,-6.16
2023-01-08T03:17:00.591Z,-6.23
2023-01-08T03:18:06.383Z,-6.25
2023-01-08T03:19:18.375Z,-6.19
2023-01-08T03:20:24.348Z,-6.28
2023-01-08T03:21:27.332Z,-6.30
2023-01-08T03:22:32.005Z,-6.30
2023-01-08T03:23:37.715Z,-6.41
2023-01-08T03:24:42.669Z,-6.41
2023-01-08T03:25:47.426Z,-6.37
2023-01-08T03:26:53.739Z,-6.30
2023-01-08T03:28:01.240Z,-6.29
2023-01-08T03:29:06.167Z,-6.21
2023-01-08T03:30:11.679Z,-6.15
2023-01-08T03:31:17.175Z,-6.12
2023-01-08T03:32:22.513Z,-6.07
2023-01-08T03:33:27.242Z,-6.15
2023-01-08T03:34:32.591Z,-6.28
2023-01-08T03:35:38.394Z,-6.30
2023-01-08T03:36:44.388Z,-6.28
2023-01-08T03:37:50.079Z,-6.25
2023-01-08T03:38:56.302Z,-6.22
2023-01-08T03:40:02.079Z,-6.26
2023-01-08T03:41:08.382Z,-6.34
2023-01-08T03:42:14.727Z,-6.31
2023-01-08T03:43:17.066Z,-6.31
2023-01-08T03:44:19.354Z,-6.30
2023-01-08T03:45:26.886Z,-6.22
2023-01-08T03:46:32.988Z,-6.26
2023-01-08T03:47:38.394Z,-6.22
2023-01-08T03:48:43.628Z,-6.21
2023-01-08T03:49:49.725Z,-6.20
2023-01-08T03:50:54.410Z,-6.12
2023-01-08T03:51:56.592Z,-6.08
2023-01-08T03:53:00.649Z,-6.15
2023-01-08T03:54:03.045Z,-6.15
2023-01-08T03:55:05.681Z,-6.21
2023-01-08T03:56:08.233Z,-6.14
2023-01-08T03:57:10.600Z,-6.10
2023-01-08T03:58:13.191Z,-6.09
2023-01-08T03:59:17.204Z,-6.09
2023-01-08T04:00:20.586Z,-6.11
2023-01-08T04:01:22.987Z,-6.17
2023-01-08T04:02:25.337Z,-6.06
2023-01-08T04:03:28.643Z,-6.04
2023-01-08T04:04:30.814Z,-6.11
2023-01-08T04:05:33.411Z,-6.07
2023-01-08T04:06:35.699Z,-6.08
2023-01-08T04:07:37.947Z,-6.09
2023-01-08T04:08:39.940Z,-6.05
2023-01-08T04:09:42.014Z,-6.04
2023-01-08T04:10:44.608Z,-6.01
2023-01-08T04:11:46.532Z,-6.04
2023-01-08T04:12:48.648Z,-6.01
2023-01-08T04:13:50.903Z,-6.11
2023-01-08T04:14:53.160Z,-6.12
2023-01-08T04:15:55.459Z,-6.16
2023-01-08T04:16:58.118Z,-6.20
2023-01-08T04:18:00.233Z,-6.23
2023-01-08T04:19:02.404Z,-6.26
2023-01-08T04:20:06.072Z,-6.19
2023-01-08T04:21:08.331Z,-6.17
2023-01-08T04:22:11.175Z,-6.05
2023-01-08T04:23:15.764Z,-6.12
2023-01-08T04:24:18.749Z,-6.11
2023-01-08T04:25:21.017Z,-6.05
2023-01-08T04:26:23.972Z,-6.01
2023-01-08T04:27:26.245Z,-6.01
2023-01-08T04:28:28.373Z,-6.01
2023-01-08T04:29:30.256Z,-6.01
2023-01-08T04:30:34.054Z,-6.07
2023-01-08T04:31:41.446Z,-6.07
2023-01-08T04:32:41.247Z,-6.15
2023-01-08T04:33:43.604Z,-6.14
2023-01-08T04:34:45.603Z,-6.21
2023-01-08T04:35:49.818Z,-6.28
2023-01-08T04:36:52.494Z,-6.30
2023-01-08T04:37:54.652Z,-6.36
2023-01-08T04:38:56.830Z,-6.34
2023-01-08T04:39:59.052Z,-6.41
2023-01-08T04:41:02.413Z,-6.44
2023-01-08T04:42:04.845Z,-6.42
2023-01-08T04:43:06.959Z,-6.32
2023-01-08T04:44:09.307Z,-6.40
2023-01-08T04:45:11.556Z,-6.33
2023-01-08T04:46:14.782Z,-6.21
2023-01-08T04:47:16.854Z,-6.13
2023-01-08T04:48:19.065Z,-5.98
2023-01-08T04:49:21.394Z,-5.98
2023-01-08T04:50:25.064Z,-5.91
2023-01-08T04:51:27.118Z,-6.05
2023-01-08T04:52:29.141Z,-6.02
2023-01-08T04:53:34.176Z,-6.02
2023-01-08T04:54:36.255Z,-6.07
2023-01-08T04:55:39.730Z,-6.11
2023-01-08T04:56:42.420Z,-6.13
2023-01-08T04:57:45.393Z,-6.23
2023-01-08T04:58:47.528Z,-6.21
2023-01-08T04:59:49.560Z,-6.17
2023-01-08T05:00:51.778Z,-6.08
2023-01-08T05:01:55.635Z,-6.04
2023-01-08T05:03:01.364Z,-6.13
2023-01-08T05:04:05.034Z,-6.17
2023-01-08T05:05:07.578Z,-6.12
2023-01-08T05:06:10.070Z,-6.06
2023-01-08T05:07:12.045Z,-6.14
2023-01-08T05:08:14.148Z,-6.09
2023-01-08T05:09:15.955Z,-6.07
2023-01-08T05:10:18.984Z,-6.02
2023-01-08T05:11:21.777Z,-6.01
2023-01-08T05:12:23.824Z,-6.02
2023-01-08T05:13:25.966Z,-6.11
2023-01-08T05:14:27.895Z,-6.16
2023-01-08T05:15:29.978Z,-6.09
2023-01-08T05:16:32.305Z,-6.02
2023-01-08T05:17:35.333Z,-5.98
2023-01-08T05:18:37.418Z,-5.98
2023-01-08T05:19:39.445Z,-5.97
2023-01-08T05:20:42.009Z,-5.99
2023-01-08T05:21:44.092Z,-5.86
2023-01-08T05:22:47.887Z,-5.96
2023-01-08T05:23:50.296Z,-5.89
2023-01-08T05:24:57.358Z,-5.95
2023-01-08T05:26:00.810Z,-5.91
2023-01-08T05:27:03.167Z,-5.91
2023-01-08T05:28:05.175Z,-6.07
2023-01-08T05:29:07.664Z,-6.07
2023-01-08T05:30:10.999Z,-6.04
2023-01-08T05:31:13.079Z,-6.04
2023-01-08T05:32:17.085Z,-6.00
2023-01-08T05:33:19.990Z,-6.00
2023-01-08T05:34:21.972Z,-6.15
2023-01-08T05:35:24.534Z,-6.13
2023-01-08T05:36:26.930Z,-6.05
2023-01-08T05:37:29.114Z,-6.05
2023-01-08T05:38:31.043Z,-6.00
2023-01-08T05:39:33.240Z,-6.02
2023-01-08T05:40:35.427Z,-6.03
2023-01-08T05:41:37.656Z,-6.05
2023-01-08T05:42:41.257Z,-6.08
2023-01-08T05:43:43.549Z,-6.12
2023-01-08T05:44:45.677Z,-6.22
2023-01-08T05:45:48.340Z,-6.15
2023-01-08T05:46:53.360Z,-6.16
2023-01-08T05:47:57.335Z,-6.20
2023-01-08T05:49:00.539Z,-6.17
2023-01-08T05:50:03.351Z,-6.17
2023-01-08T05:51:05.696Z,-6.28
2023-01-08T05:52:07.915Z,-6.37
2023-01-08T05:53:10.915Z,-6.29
2023-01-08T05:54:13.521Z,-6.24
2023-01-08T05:55:16.799Z,-6.28
2023-01-08T05:56:21.224Z,-6.29
2023-01-08T05:57:23.743Z,-6.33
2023-01-08T05:58:26.656Z,-6.29
2023-01-08T05:59:28.755Z,-6.36
2023-01-08T06:00:33.167Z,-6.31
2023-01-08T06:01:35.349Z,-6.31
2023-01-08T06:02:37.889Z,-6.26
2023-01-08T06:03:40.090Z,-6.23
2023-01-08T06:04:43.193Z,-6.12
2023-01-08T06:05:45.710Z,-6.06
2023-01-08T06:06:47.839Z,-6.04
2023-01-08T06:07:49.817Z,-5.94
2023-01-08T06:08:52.377Z,-6.01
2023-01-08T06:09:54.516Z,-6.01
2023-01-08T06:11:00.972Z,-6.06
2023-01-08T06:12:03.521Z,-6.15
2023-01-08T06:13:09.990Z,-6.11
2023-01-08T06:14:12.600Z,-6.13
2023-01-08T06:15:15.166Z,-6.19
2023-01-08T06:16:20.255Z,-6.19
2023-01-08T06:17:22.503Z,-6.19
2023-01-08T06:18:24.643Z,-6.26
2023-01-08T06:19:26.831Z,-6.30
2023-01-08T06:20:29.237Z,-6.36
2023-01-08T06:21:31.355Z,-6.35
2023-01-08T06:22:33.910Z,-6.36
2023-01-08T06:23:36.352Z,-6.34
2023-01-08T06:24:38.858Z,-6.26
2023-01-08T06:25:40.967Z,-6.20
2023-01-08T06:26:43.485Z,-6.19
2023-01-08T06:27:53.954Z,-6.22
2023-01-08T06:28:56.532Z,-6.21
2023-01-08T06:29:58.718Z,-6.21
2023-01-08T06:31:01.888Z,-6.22
2023-01-08T06:32:04.381Z,-6.17
2023-01-08T06:33:06.370Z,-6.31
2023-01-08T06:34:08.443Z,-6.30
2023-01-08T06:35:10.802Z,-6.23
2023-01-08T06:36:13.195Z,-6.23
2023-01-08T06:37:17.011Z,-6.23
2023-01-08T06:38:19.341Z,-6.26
2023-01-08T06:39:22.060Z,-6.26
2023-01-08T06:40:24.692Z,-6.16
2023-01-08T06:41:26.565Z,-6.09
2023-01-08T06:42:29.051Z,-6.04
2023-01-08T06:43:32.784Z,-5.96
2023-01-08T06:44:37.196Z,-5.87
2023-01-08T06:45:39.820Z,-5.88
2023-01-08T06:46:42.381Z,-5.88
2023-01-08T06:47:44.707Z,-6.15
2023-01-08T06:48:46.634Z,-6.22
2023-01-08T06:49:48.552Z,-6.21
2023-01-08T06:50:52.655Z,-6.30
2023-01-08T06:51:54.663Z,-6.29
2023-01-08T06:52:56.911Z,-6.21
2023-01-08T06:53:59.213Z,-6.19
2023-01-08T06:55:01.825Z,-6.21
2023-01-08T06:56:06.828Z,-6.24
2023-01-08T06:57:08.897Z,-6.23
2023-01-08T06:58:12.222Z,-6.23
2023-01-08T06:59:14.465Z,-6.26
2023-01-08T07:00:18.398Z,-6.34
2023-01-08T07:01:22.517Z,-6.32
2023-01-08T07:02:25.791Z,-6.32
2023-01-08T07:03:29.750Z,-6.32
2023-01-08T07:04:32.911Z,-6.42
2023-01-08T07:05:35.970Z,-6.45
2023-01-08T07:06:38.223Z,-6.37
2023-01-08T07:07:40.248Z,-6.38
2023-01-08T07:08:43.561Z,-6.40
2023-01-08T07:09:45.845Z,-6.47
2023-01-08T07:10:48.734Z,-6.49
2023-01-08T07:11:51.064Z,-6.47
2023-01-08T07:12:53.284Z,-6.43
2023-01-08T07:13:57.262Z,-6.40
2023-01-08T07:14:59.459Z,-6.40
2023-01-08T07:16:11.875Z,-6.36
2023-01-08T07:17:13.970Z,-6.39
2023-01-08T07:18:17.058Z,-6.42
2023-01-08T07:19:19.310Z,-6.37
2023-01-08T07:20:21.613Z,-6.34
2023-01-08T07:21:23.856Z,-6.30
2023-01-08T07:22:26.984Z,-6.23
2023-01-08T07:23:29.838Z,-6.31
2023-01-08T07:24:31.948Z,-6.32
2023-01-08T07:25:36.328Z,-6.39
2023-01-08T07:26:39.183Z,-6.33
2023-01-08T07:27:41.566Z,-6.33
2023-01-08T07:28:43.999Z,-6.33
2023-01-08T07:29:46.487Z,-6.35
2023-01-08T07:30:48.716Z,-6.41
2023-01-08T07:31:50.762Z,-6.42
2023-01-08T07:32:53.356Z,-6.46
2023-01-08T07:33:55.875Z,-6.34
2023-01-08T07:34:59.559Z,-6.15
2023-01-08T07:36:02.480Z,-6.15
2023-01-08T07:37:04.432Z,-6.19
2023-01-08T07:38:06.493Z,-6.18
2023-01-08T07:39:08.436Z,-6.09
2023-01-08T07:40:12.637Z,-6.01
2023-01-08T07:41:16.853Z,-5.93
2023-01-08T07:42:19.609Z,-5.95
2023-01-08T07:43:21.827Z,-5.92
2023-01-08T07:44:24.461Z,-5.87
2023-01-08T07:45:28.292Z,-5.86
2023-01-08T07:46:30.573Z,-5.87
2023-01-08T07:47:32.773Z,-5.95
2023-01-08T07:48:36.193Z,-5.88
2023-01-08T07:49:38.187Z,-5.92
2023-01-08T07:50:41.520Z,-6.01
2023-01-08T07:51:43.806Z,-6.00
2023-01-08T07:52:46.567Z,-6.06
2023-01-08T07:53:49.762Z,-6.09
2023-01-08T07:54:52.526Z,-6.04
2023-01-08T07:56:03.098Z,-5.98
2023-01-08T07:57:05.175Z,-5.98
2023-01-08T07:58:13.326Z,-5.92
2023-01-08T07:59:15.361Z,-5.90
2023-01-08T08:00:18.423Z,-5.91
2023-01-08T08:01:21.220Z,-5.91
2023-01-08T08:02:24.708Z,-5.92
2023-01-08T08:03:27.112Z,-5.84
2023-01-08T08:04:29.101Z,-5.89
2023-01-08T08:05:33.539Z,-5.85
2023-01-08T08:06:36.650Z,-5.98
2023-01-08T08:07:38.920Z,-5.91
2023-01-08T08:08:42.281Z,-5.95
2023-01-08T08:09:44.458Z,-6.06
2023-01-08T08:10:47.046Z,-6.01
2023-01-08T08:11:49.652Z,-5.95
2023-01-08T08:12:52.236Z,-5.86
2023-01-08T08:13:56.601Z,-5.84
2023-01-08T08:14:58.450Z,-5.82
2023-01-08T08:16:02.891Z,-5.77
2023-01-08T08:17:04.965Z,-5.69
2023-01-08T08:18:07.225Z,-5.77
2023-01-08T08:19:12.114Z,-5.74
2023-01-08T08:20:16.424Z,-5.82
2023-01-08T08:21:18.478Z,-5.92
2023-01-08T08:22:20.524Z,-5.88
2023-01-08T08:23:22.352Z,-5.95
2023-01-08T08:24:24.279Z,-5.87
2023-01-08T08:25:29.888Z,-5.91
2023-01-08T08:26:33.369Z,-5.93
2023-01-08T08:27:36.781Z,-5.89
2023-01-08T08:28:39.649Z,-5.82
2023-01-08T08:29:43.267Z,-5.73
2023-01-08T08:30:46.131Z,-5.65
2023-01-08T08:31:48.114Z,-5.72
2023-01-08T08:32:50.226Z,-5.66
2023-01-08T08:33:52.226Z,-5.66
2023-01-08T08:34:55.124Z,-5.55
2023-01-08T08:35:57.388Z,-5.68
2023-01-08T08:36:59.955Z,-5.59
2023-01-08T08:38:02.769Z,-5.43
2023-01-08T08:39:05.135Z,-5.37
2023-01-08T08:40:08.714Z,-5.40
2023-01-08T08:41:10.964Z,-5.41
2023-01-08T08:42:13.753Z,-5.35
2023-01-08T08:43:15.981Z,-5.35
2023-01-08T08:44:17.867Z,-5.33
2023-01-08T08:45:19.828Z,-5.21
2023-01-08T08:46:24.673Z,-5.21
2023-01-08T08:47:27.022Z,-5.24
2023-01-08T08:48:30.053Z,-5.42
2023-01-08T08:49:32.689Z,-5.46
2023-01-08T08:50:35.468Z,-5.47
2023-01-08T08:51:37.577Z,-5.43
2023-01-08T08:52:40.328Z,-5.61
2023-01-08T08:53:42.639Z,-5.55
2023-01-08T08:54:45.064Z,-5.65
2023-01-08T08:55:47.473Z,-5.55
2023-01-08T08:56:49.685Z,-5.58
2023-01-08T08:57:52.503Z,-5.67
2023-01-08T08:58:54.916Z,-5.59
2023-01-08T08:59:57.032Z,-5.69
2023-01-08T09:01:04.133Z,-5.58
2023-01-08T09:02:07.309Z,-5.45
2023-01-08T09:03:15.432Z,-5.44
2023-01-08T09:04:17.622Z,-5.47
2023-01-08T09:05:20.794Z,-5.55
2023-01-08T09:06:24.948Z,-5.48
2023-01-08T09:07:27.729Z,-5.30
2023-01-08T09:08:30.095Z,-5.19
2023-01-08T09:09:33.285Z,-5.19
2023-01-08T09:10:41.639Z,-5.18
2023-01-08T09:11:43.935Z,-5.12
2023-01-08T09:12:46.241Z,-5.11
2023-01-08T09:13:48.372Z,-5.07
2023-01-08T09:14:51.186Z,-5.01
2023-01-08T09:15:53.410Z,-5.13
2023-01-08T09:16:56.792Z,-5.08
2023-01-08T09:17:58.940Z,-5.00
2023-01-08T09:19:00.937Z,-4.94
2023-01-08T09:20:04.820Z,-5.00
2023-01-08T09:21:07.553Z,-5.01
2023-01-08T09:22:10.212Z,-5.00
2023-01-08T09:23:13.307Z,-4.88
2023-01-08T09:24:15.802Z,-4.76
2023-01-08T09:25:18.523Z,-4.74
2023-01-08T09:26:21.172Z,-4.63
2023-01-08T09:27:23.445Z,-4.53
2023-01-08T09:28:25.630Z,-4.50
2023-01-08T09:29:27.607Z,-4.43
2023-01-08T09:30:30.134Z,-4.49
2023-01-08T09:31:35.430Z,-4.43
2023-01-08T09:32:38.112Z,-4.37
2023-01-08T09:33:40.103Z,-4.51
2023-01-08T09:34:42.115Z,-4.54
2023-01-08T09:35:44.347Z,-4.53
2023-01-08T09:36:46.736Z,-4.51
2023-01-08T09:37:53.910Z,-4.42
2023-01-08T09:38:56.844Z,-4.44
2023-01-08T09:40:02.460Z,-4.47
2023-01-08T09:42:26.772Z,-4.21
2023-01-08T09:43:32.446Z,-4.37
2023-01-08T09:44:41.637Z,-4.41
2023-01-08T09:45:47.612Z,-4.31
2023-01-08T09:46:50.490Z,-4.29
2023-01-08T09:47:53.643Z,-4.18
2023-01-08T09:49:00.513Z,-4.36
2023-01-08T09:50:06.846Z,-4.46
2023-01-08T09:51:14.882Z,-4.54
2023-01-08T09:52:17.624Z,-4.45
2023-01-08T09:53:19.935Z,-4.34
2023-01-08T09:54:25.619Z,-4.24
2023-01-08T09:55:31.155Z,-4.26
2023-01-08T09:56:36.602Z,-4.29
2023-01-08T09:57:38.928Z,-4.17
2023-01-08T09:58:44.869Z,-4.19
2023-01-08T09:59:48.427Z,-4.36
2023-01-08T10:00:51.631Z,-4.25
2023-01-08T10:01:56.864Z,-4.34
2023-01-08T10:02:59.624Z,-4.40
2023-01-08T10:04:20.295Z,-4.22
2023-01-08T10:05:23.488Z,-4.22
2023-01-08T10:06:25.747Z,-4.14
2023-01-08T10:07:30.648Z,-4.13
2023-01-08T10:08:32.654Z,-4.10
2023-01-08T10:09:34.773Z,-4.13
2023-01-08T10:10:38.496Z,-4.12
2023-01-08T10:11:44.174Z,-4.22
2023-01-08T10:12:49.888Z,-4.22
2023-01-08T10:13:55.907Z,-4.21
2023-01-08T10:15:01.716Z,-4.13
2023-01-08T10:16:09.815Z,-4.36
2023-01-08T10:17:27.685Z,-4.22
2023-01-08T12:08:44.927Z,-3.68
2023-01-08T12:10:02.745Z,-3.73
2023-01-08T12:11:08.576Z,-3.67
2023-01-08T12:12:30.199Z,-3.57
2023-01-08T12:13:36.127Z,-3.56
2023-01-08T12:14:48.413Z,-3.55
2023-01-08T12:16:10.175Z,-3.51
2023-01-08T12:17:16.183Z,-3.48
2023-01-08T12:18:24.811Z,-3.45
2023-01-08T12:19:36.573Z,-3.40
2023-01-08T12:20:55.665Z,-3.27
2023-01-08T12:22:32.332Z,-3.35
2023-01-08T12:23:53.917Z,-3.35
2023-01-08T12:25:12.563Z,-3.39
2023-01-08T12:26:31.619Z,-3.42
2023-01-08T12:28:04.506Z,-3.34
2023-01-08T12:29:25.593Z,-3.35
2023-01-08T12:30:48.091Z,-3.41
2023-01-08T12:32:08.568Z,-3.35
2023-01-08T12:33:17.403Z,-3.33
2023-01-08T12:34:23.908Z,-3.35
2023-01-08T12:35:42.099Z,-3.41
2023-01-08T12:36:48.599Z,-3.38
2023-01-08T12:37:56.953Z,-3.29
2023-01-08T12:39:05.879Z,-3.29
2023-01-08T12:40:30.745Z,-3.24
2023-01-08T12:41:35.703Z,-3.31
2023-01-08T12:42:46.722Z,-3.24
2023-01-08T12:43:52.234Z,-3.18
2023-01-08T12:44:57.669Z,-3.15
2023-01-08T12:46:03.042Z,-3.17
2023-01-08T12:47:07.707Z,-3.24
2023-01-08T12:48:19.737Z,-3.36
2023-01-08T12:49:29.097Z,-3.35
2023-01-08T12:50:56.080Z,-3.39
2023-01-08T12:52:11.100Z,-3.43
2023-01-08T12:53:21.535Z,-3.48
2023-01-08T12:54:45.850Z,-3.48
2023-01-08T12:57:18.061Z,-3.38
2023-01-08T12:58:24.366Z,-3.47
2023-01-08T12:59:51.437Z,-3.40
2023-01-08T13:01:00.594Z,-3.34
2023-01-08T13:02:26.461Z,-3.26
2023-01-08T13:03:31.602Z,-3.22
2023-01-08T13:04:44.219Z,-3.22
2023-01-08T13:05:46.623Z,-3.30
2023-01-08T13:06:54.464Z,-3.21
2023-01-08T13:08:03.258Z,-3.21
2023-01-08T13:09:06.714Z,-3.09
2023-01-08T13:10:21.767Z,-3.03
2023-01-08T13:11:30.474Z,-3.09
2023-01-08T13:12:38.936Z,-3.04
2023-01-08T13:13:44.786Z,-3.05
2023-01-08T13:14:50.606Z,-2.99
2023-01-08T13:15:53.234Z,-2.94
2023-01-08T13:17:04.767Z,-3.11
2023-01-08T13:18:16.764Z,-3.03
2023-01-08T13:19:28.765Z,-3.06
2023-01-08T13:20:33.428Z,-3.22
2023-01-08T13:21:44.859Z,-3.25
2023-01-08T13:23:00.422Z,-3.45
2023-01-08T13:24:06.112Z,-3.59
2023-01-08T13:25:18.078Z,-3.60
2023-01-08T13:26:24.332Z,-3.64
2023-01-08T13:27:29.225Z,-3.78
2023-01-08T13:28:44.233Z,-3.87
2023-01-08T13:29:51.711Z,-4.03
2023-01-08T13:30:58.870Z,-4.10
2023-01-08T13:32:01.320Z,-4.18
2023-01-08T13:33:22.557Z,-4.20
2023-01-08T13:34:42.002Z,-4.22
2023-01-08T13:35:44.062Z,-4.22
2023-01-08T13:36:57.490Z,-4.24
2023-01-08T13:38:11.490Z,-4.25
2023-01-08T13:39:17.861Z,-4.25
2023-01-08T13:40:48.126Z,-4.26
2023-01-08T13:42:07.498Z,-4.34
2023-01-08T13:43:18.661Z,-4.35
2023-01-08T13:44:30.714Z,-4.38
2023-01-08T13:45:33.425Z,-4.39
2023-01-08T13:46:40.196Z,-4.38
2023-01-08T13:47:43.749Z,-4.37
2023-01-08T13:49:00.744Z,-4.33
2023-01-08T13:50:06.743Z,-4.36
2023-01-08T13:51:13.740Z,-4.42
2023-01-08T13:52:29.289Z,-4.41
2023-01-08T13:53:33.444Z,-4.50
2023-01-08T13:54:41.838Z,-4.56
2023-01-08T13:55:48.304Z,-4.54
2023-01-08T13:56:57.469Z,-4.57
2023-01-08T13:58:03.713Z,-4.61
2023-01-08T13:59:06.816Z,-4.63
2023-01-08T14:00:15.835Z,-4.63
2023-01-08T14:01:19.556Z,-4.68
2023-01-08T14:02:30.840Z,-4.68
2023-01-08T14:03:36.840Z,-4.73
2023-01-08T14:04:41.360Z,-4.73
2023-01-08T14:05:43.554Z,-4.74
2023-01-08T14:06:46.336Z,-4.72
2023-01-08T14:07:48.515Z,-4.72
2023-01-08T14:09:04.921Z,-4.77
2023-01-08T14:10:11.654Z,-4.74
2023-01-08T14:11:13.991Z,-4.78
2023-01-08T14:12:22.863Z,-4.80
2023-01-08T14:13:31.954Z,-4.82
2023-01-08T14:14:37.862Z,-4.87
2023-01-08T14:15:40.156Z,-4.87
2023-01-08T14:16:46.316Z,-4.82
2023-01-08T14:17:49.305Z,-4.86
2023-01-08T14:18:52.093Z,-4.85
2023-01-08T14:19:54.376Z,-4.83
2023-01-08T14:20:58.091Z,-4.85
2023-01-08T14:22:03.711Z,-4.90
2023-01-08T14:23:18.989Z,-4.90
2023-01-08T14:24:25.170Z,-4.89
2023-01-08T14:25:28.359Z,-4.98
2023-01-08T14:26:36.579Z,-4.94
2023-01-08T14:27:39.407Z,-4.93
2023-01-08T14:28:45.163Z,-4.91
2023-01-08T14:29:47.564Z,-4.94
2023-01-08T14:30:54.566Z,-4.98
2023-01-08T14:31:59.764Z,-5.00
2023-01-08T14:33:03.252Z,-5.03
2023-01-08T14:34:05.651Z,-5.01
2023-01-08T14:35:09.560Z,-5.01
2023-01-08T14:36:13.737Z,-5.03
2023-01-08T14:37:18.152Z,-5.06
2023-01-08T14:38:20.489Z,-5.09
2023-01-08T14:39:35.876Z,-5.10
2023-01-08T14:40:41.903Z,-5.16
2023-01-08T14:42:02.933Z,-5.15
2023-01-08T14:43:12.475Z,-5.10
2023-01-08T14:44:17.367Z,-5.19
2023-01-08T14:45:29.154Z,-5.20
2023-01-08T14:46:31.864Z,-5.21
2023-01-08T14:47:41.134Z,-5.21
2023-01-08T14:48:45.077Z,-5.19
2023-01-08T14:49:52.696Z,-5.33
2023-01-08T14:51:11.048Z,-5.30
2023-01-08T14:52:15.552Z,-5.29
2023-01-08T14:53:24.511Z,-5.26
2023-01-08T14:54:30.309Z,-5.28
2023-01-08T14:55:36.234Z,-5.27
2023-01-08T14:56:38.657Z,-5.26
2023-01-08T14:57:49.243Z,-5.21
2023-01-08T14:58:53.801Z,-5.23
2023-01-08T14:59:59.603Z,-5.24
2023-01-08T15:01:21.464Z,-5.23
2023-01-08T15:02:30.659Z,-5.26
2023-01-08T15:03:36.976Z,-5.28
2023-01-08T15:04:39.611Z,-5.30
2023-01-08T15:05:51.571Z,-5.28
2023-01-08T15:07:10.156Z,-5.32
2023-01-08T15:08:25.133Z,-5.29
2023-01-08T15:09:32.709Z,-5.31
2023-01-08T15:10:41.456Z,-5.31
2023-01-08T15:11:55.527Z,-5.35
2023-01-08T15:12:59.745Z,-5.34
2023-01-08T15:14:05.635Z,-5.34
2023-01-08T15:15:11.839Z,-5.38
2023-01-08T15:16:35.222Z,-5.37
2023-01-08T15:17:39.851Z,-5.39
2023-01-08T15:19:06.954Z,-5.38
2023-01-08T15:20:13.160Z,-5.35
2023-01-08T15:21:22.213Z,-5.44
2023-01-08T15:22:33.685Z,-5.40
2023-01-08T15:23:47.289Z,-5.39
2023-01-08T15:25:01.215Z,-5.42
2023-01-08T15:26:04.389Z,-5.42
2023-01-08T15:27:10.855Z,-5.36
2023-01-08T15:28:15.656Z,-5.34
2023-01-08T15:29:33.406Z,-5.34
2023-01-08T15:30:42.799Z,-5.38
2023-01-08T15:31:48.871Z,-5.36
2023-01-08T15:32:51.183Z,-5.34
2023-01-08T15:33:53.998Z,-5.31
2023-01-08T15:34:56.993Z,-5.19
2023-01-08T15:35:59.142Z,-5.19
2023-01-08T15:37:02.786Z,-5.14
2023-01-08T15:38:06.490Z,-5.10
2023-01-08T15:39:09.744Z,-5.09
2023-01-08T15:40:13.290Z,-5.15
2023-01-08T15:41:39.835Z,-5.10
2023-01-08T15:43:01.995Z,-5.15
2023-01-08T15:44:05.039Z,-5.30
2023-01-08T15:45:22.942Z,-5.35
2023-01-08T15:46:25.565Z,-5.43
2023-01-08T15:47:28.511Z,-5.36
2023-01-08T15:48:31.761Z,-5.41
2023-01-08T15:49:34.160Z,-5.46
2023-01-08T15:50:39.623Z,-5.44
2023-01-08T15:51:45.416Z,-5.40
2023-01-08T15:52:47.929Z,-5.50
2023-01-08T15:53:50.186Z,-5.42
2023-01-08T15:54:52.533Z,-5.37
2023-01-08T15:55:54.775Z,-5.49
2023-01-08T15:56:57.066Z,-5.53
2023-01-08T15:58:00.504Z,-5.58
2023-01-08T15:59:04.790Z,-5.55
2023-01-08T16:00:10.048Z,-5.53
2023-01-08T16:01:12.440Z,-5.52
2023-01-08T16:02:15.976Z,-5.48
2023-01-08T16:03:18.861Z,-5.49